KMXO

Details ICAO KMXO
Name MONTICELLO RGNL
Region United States
Timezone America/Chicago (UTC-5.0)
Plans Departing 5
Arriving 3
Stats Elevation 833 ft / 254 m (AMSL)
Location 42.220018° -91.162910°
Runways 2
Magnetic Variation 1.210° W
Sunrise 2018-05-25 10:36:26 UTC / 2018-05-25 05:36:26 Local
Sunset 2018-05-26 01:29:40 UTC / 2018-05-25 20:29:40 Local
Advertisement - Login to hide

Runways

ID Width Length Bearing (true) Bearing (mag) Surface Threshold Offset Overrun Length
09 90 ft / 27 m 2,285 ft / 696 m 90.00° 91.21° Grass 0 ft / 0 m 0 ft / 0 m
15 75 ft / 23 m 4,402 ft / 1,342 m 153.90° 155.11° Concrete 0 ft / 0 m 0 ft / 0 m
27 90 ft / 27 m 2,285 ft / 696 m 270.00° 271.21° Grass 0 ft / 0 m 0 ft / 0 m
33 75 ft / 23 m 4,402 ft / 1,342 m 333.91° 335.12° Concrete 0 ft / 0 m 0 ft / 0 m

Map

Weather


0- 5 10 15 20 25 30 35+ Temperature / ° C

Clouds and Precipitation
Forecast for 2018-05-25 06:00 UTC. Updated 3 hours ago

Ground ~20,000 ft ~40,000 ft Winds

METAR

KMXO 250735Z AUTO 14005KT 10SM CLR 21/16 A2995 RMK AO2

TAF

Not found

Frequencies

Recorded 119.27 MHz AWOS 3
Approach 134.05 MHz CEDAR RAPIDS APP/DEP
Unicom 122.80 MHz CTAF/UNICOM
Warning: Do not use this data for real-world aviation or navigation. No guarantee of current accuracy is given.